Time;durP1;ratioP1;P1;durP2;ratioP2;P2;SDS_P1;SDS_P2;PMS_P1;PMS_P2;Temp;Humidity;BMP_temperature;BMP_pressure;BME280_temperature;BME280_humidity;BME280_pressure;Samples;Min_cycle;Max_cycle;Signal;HPM_P1;HPM_P2
2022/04/25 00:00:35;;;;;;;8.90;3.75;;;8.00;3.70;;;;;;5036500;28;20477;-81
2022/04/25 00:03:01;;;;;;;13.95;3.63;;;8.00;6.90;;;;;;5036650;28;20021;-81
2022/04/25 00:05:27;;;;;;;8.55;3.40;;;8.00;2.90;;;;;;5036645;28;20113;-81
2022/04/25 00:07:53;;;;;;;4.82;3.08;;;8.10;1.00;;;;;;5036461;28;20061;-81
2022/04/25 00:10:18;;;;;;;10.02;2.88;;;8.00;1.60;;;;;;5036231;28;20021;-81
2022/04/25 00:12:44;;;;;;;8.05;3.35;;;7.90;21.40;;;;;;5036076;28;20388;-81
2022/04/25 00:15:11;;;;;;;6.70;3.53;;;7.80;34.40;;;;;;5036220;28;20032;-81
2022/04/25 00:17:36;;;;;;;10.30;3.10;;;7.70;51.50;;;;;;5036313;28;20101;-80
2022/04/25 00:20:03;;;;;;;10.43;4.47;;;7.70;52.90;;;;;;5018246;28;20108;-80
2022/04/25 00:22:29;;;;;;;9.45;3.47;;;7.70;60.10;;;;;;5036157;28;20022;-81
2022/04/25 00:24:54;;;;;;;7.35;2.55;;;7.70;53.30;;;;;;5036121;28;20421;-81
2022/04/25 00:27:20;;;;;;;9.35;4.25;;;7.80;50.00;;;;;;5035968;28;20029;-81
2022/04/25 00:29:45;;;;;;;9.02;4.30;;;7.80;43.70;;;;;;5018259;28;20022;-81
2022/04/25 00:32:11;;;;;;;13.70;5.05;;;7.90;39.40;;;;;;5035836;28;20029;-81
2022/04/25 00:34:37;;;;;;;9.20;3.78;;;8.00;37.60;;;;;;5035735;28;20025;-82
2022/04/25 00:37:03;;;;;;;10.00;3.83;;;8.00;33.50;;;;;;5035786;28;20025;-81
2022/04/25 00:39:29;;;;;;;10.02;3.47;;;8.00;29.70;;;;;;5035989;28;20033;-81
2022/04/25 00:41:56;;;;;;;11.02;3.70;;;8.10;26.30;;;;;;5035545;28;20021;-82
2022/04/25 00:44:22;;;;;;;7.53;3.35;;;8.20;9.70;;;;;;5035493;28;20040;-81
2022/04/25 00:46:51;;;;;;;5.72;2.95;;;8.30;1.00;;;;;;5035692;28;20388;-82
2022/04/25 00:49:17;;;;;;;7.90;2.47;;;8.30;1.00;;;;;;5035822;28;20384;-82
2022/04/25 00:51:42;;;;;;;7.60;2.88;;;8.30;1.00;;;;;;5035424;28;20022;-81
2022/04/25 00:54:09;;;;;;;7.20;3.20;;;8.30;1.00;;;;;;5035351;28;20090;-81
2022/04/25 00:56:35;;;;;;;8.77;3.50;;;8.30;1.00;;;;;;5035730;28;20447;-82
2022/04/25 00:59:03;;;;;;;8.30;4.00;;;8.40;1.00;;;;;;5035394;28;20033;-81
2022/04/25 01:01:31;;;;;;;5.53;2.80;;;8.40;1.00;;;;;;5035738;28;20488;-81
2022/04/25 01:03:57;;;;;;;10.38;3.55;;;8.40;1.00;;;;;;5035674;28;20381;-82
2022/04/25 01:06:25;;;;;;;10.10;2.83;;;8.40;1.00;;;;;;5035216;28;20034;-81
2022/04/25 01:08:51;;;;;;;7.70;3.63;;;8.40;1.00;;;;;;5035360;28;20034;-81
2022/04/25 01:11:17;;;;;;;6.32;3.28;;;8.40;1.00;;;;;;5035537;28;20137;-81
2022/04/25 01:13:44;;;;;;;10.30;4.05;;;8.40;1.00;;;;;;5077624;23;20059;-83
2022/04/25 01:16:10;;;;;;;11.68;3.80;;;8.40;1.00;;;;;;5084056;28;20106;-83
2022/04/25 01:18:36;;;;;;;8.93;4.05;;;8.40;1.00;;;;;;5082006;28;20052;-83
2022/04/25 01:21:04;;;;;;;7.50;3.42;;;8.40;1.00;;;;;;5074970;28;20028;-82
2022/04/25 01:29:01;;;;;;;7.72;3.65;;;8.40;12.30;;;;;;5083347;28;20075;-83
2022/04/25 01:31:26;;;;;;;9.13;3.53;;;8.40;12.00;;;;;;5091529;28;20030;-83
2022/04/25 01:33:52;;;;;;;6.70;2.90;;;8.40;1.00;;;;;;5092406;28;20040;-83
2022/04/25 01:36:21;;;;;;;7.65;3.88;;;8.50;1.00;;;;;;5075947;28;20027;-84
2022/04/25 01:38:47;;;;;;;7.22;3.10;;;8.40;1.00;;;;;;5073899;28;20028;-82
2022/04/25 01:41:13;;;;;;;8.85;3.65;;;8.40;1.00;;;;;;5073230;28;20037;-83
2022/04/25 01:43:38;;;;;;;8.02;4.22;;;8.30;1.00;;;;;;5078461;28;20032;-83
2022/04/25 01:46:04;;;;;;;8.23;3.35;;;8.30;1.00;;;;;;5063327;28;20020;-83
2022/04/25 01:48:31;;;;;;;8.63;4.68;;;8.20;1.00;;;;;;5079562;28;20080;-82
2022/04/25 01:50:56;;;;;;;12.32;4.55;;;8.10;1.00;;;;;;5088328;28;20239;-83
2022/04/25 01:53:22;;;;;;;8.50;4.47;;;8.10;1.00;;;;;;5079161;28;20036;-83
2022/04/25 01:55:47;;;;;;;14.88;4.78;;;8.10;1.00;;;;;;5098210;28;20016;-83
2022/04/25 01:58:13;;;;;;;8.60;4.25;;;8.00;1.00;;;;;;5087676;28;20021;-83
2022/04/25 02:00:39;;;;;;;10.98;5.10;;;8.00;1.00;;;;;;5097343;28;20020;-83
2022/04/25 02:03:05;;;;;;;10.82;4.60;;;8.00;1.00;;;;;;5092958;28;20049;-83
2022/04/25 02:05:31;;;;;;;10.23;5.22;;;8.00;1.00;;;;;;5093503;28;20024;-83
2022/04/25 02:07:56;;;;;;;5.00;2.78;;;8.00;1.00;;;;;;5090320;28;20027;-82
2022/04/25 02:10:22;;;;;;;8.23;4.05;;;8.00;1.00;;;;;;5081886;28;20023;-83
2022/04/25 02:12:48;;;;;;;11.30;5.88;;;8.00;1.00;;;;;;5099104;28;20088;-82
2022/04/25 02:15:13;;;;;;;9.82;4.82;;;8.00;1.00;;;;;;5068775;28;20076;-83
2022/04/25 02:17:41;;;;;;;8.10;4.78;;;7.90;1.00;;;;;;5067615;28;20082;-83
2022/04/25 02:20:08;;;;;;;8.95;4.20;;;7.90;1.00;;;;;;5051122;28;20440;-82
2022/04/25 02:22:35;;;;;;;8.57;4.45;;;8.00;1.00;;;;;;5068986;28;20021;-82
2022/04/25 02:25:01;;;;;;;10.90;6.28;;;7.90;1.00;;;;;;5050931;28;20025;-82
2022/04/25 02:27:26;;;;;;;8.15;4.05;;;7.80;1.00;;;;;;5051666;28;20033;-83
2022/04/25 02:29:57;;;;;;;9.80;4.18;;;7.80;1.00;;;;;;5064429;28;20032;-83
2022/04/25 02:32:23;;;;;;;8.48;4.00;;;7.80;1.00;;;;;;5062623;28;20033;-82
2022/04/25 02:34:53;;;;;;;8.82;4.20;;;7.70;1.00;;;;;;5066362;28;20049;-82
2022/04/25 02:37:19;;;;;;;8.88;4.25;;;7.70;1.00;;;;;;5049419;28;20396;-83
2022/04/25 02:39:44;;;;;;;9.98;4.95;;;7.70;1.00;;;;;;5048063;28;20025;-83
2022/04/25 02:42:10;;;;;;;9.18;5.13;;;7.60;1.50;;;;;;5057075;28;20024;-82
2022/04/25 02:44:35;;;;;;;9.18;5.35;;;7.60;1.00;;;;;;5052849;28;20033;-82
2022/04/25 02:47:01;;;;;;;6.68;3.72;;;7.60;1.00;;;;;;5056485;28;20027;-83
2022/04/25 02:49:27;;;;;;;11.30;5.43;;;7.60;1.00;;;;;;5065548;28;20392;-82
2022/04/25 02:51:52;;;;;;;9.65;5.20;;;7.50;1.00;;;;;;5059551;28;20550;-82
2022/04/25 02:54:18;;;;;;;8.65;4.13;;;7.50;1.00;;;;;;5050369;28;20025;-82
2022/04/25 02:56:43;;;;;;;7.35;4.82;;;7.30;4.80;;;;;;5056512;28;20031;-82
2022/04/25 02:59:09;;;;;;;10.20;4.85;;;7.30;11.90;;;;;;5057087;28;20036;-83
2022/04/25 03:01:35;;;;;;;9.73;4.20;;;7.30;11.70;;;;;;5066603;28;20039;-82
2022/04/25 03:04:00;;;;;;;11.00;5.25;;;7.30;1.60;;;;;;5041113;28;20025;-82
2022/04/25 03:06:27;;;;;;;11.23;5.63;;;7.30;1.00;;;;;;5056750;28;20031;-82
2022/04/25 03:08:52;;;;;;;8.77;5.78;;;7.20;10.10;;;;;;5068820;28;20017;-82
2022/04/25 03:11:18;;;;;;;9.20;4.47;;;7.10;20.60;;;;;;5062914;28;20033;-83
2022/04/25 03:13:44;;;;;;;8.20;5.63;;;7.00;27.80;;;;;;5060215;28;20044;-83
2022/04/25 03:16:09;;;;;;;10.02;5.75;;;6.90;29.50;;;;;;5049735;28;20027;-83
2022/04/25 03:18:35;;;;;;;9.82;4.18;;;6.80;41.70;;;;;;5042932;28;20028;-82
2022/04/25 03:21:01;;;;;;;9.07;5.57;;;6.70;45.70;;;;;;5033156;28;20029;-82
2022/04/25 03:23:28;;;;;;;6.65;4.28;;;6.50;55.50;;;;;;5059950;28;20025;-82
2022/04/25 03:25:54;;;;;;;9.77;5.30;;;6.50;58.90;;;;;;5069031;28;20054;-83
2022/04/25 03:28:20;;;;;;;12.07;5.68;;;6.50;61.80;;;;;;5057155;28;20052;-83
2022/04/25 03:30:46;;;;;;;9.10;5.05;;;6.40;67.50;;;;;;5059283;28;20062;-83
2022/04/25 03:33:12;;;;;;;9.98;5.38;;;6.30;71.70;;;;;;5046948;28;20056;-82
2022/04/25 03:35:41;;;;;;;10.73;5.45;;;6.20;73.50;;;;;;5060459;28;20055;-83
2022/04/25 03:38:07;;;;;;;11.80;5.90;;;6.20;90.80;;;;;;5066132;28;20033;-83
2022/04/25 03:40:37;;;;;;;15.73;5.72;;;6.20;92.40;;;;;;5058990;28;20392;-83
2022/04/25 03:43:06;;;;;;;9.13;5.17;;;6.10;93.10;;;;;;5055051;28;20025;-82
2022/04/25 03:45:32;;;;;;;9.85;5.32;;;6.10;99.40;;;;;;5063523;28;20267;-83
2022/04/25 03:47:58;;;;;;;9.77;4.88;;;6.10;99.90;;;;;;5049470;28;20027;-82
2022/04/25 03:50:24;;;;;;;8.63;5.20;;;6.10;99.90;;;;;;5050262;28;20016;-82
2022/04/25 03:52:50;;;;;;;12.40;5.38;;;6.10;99.90;;;;;;5051170;28;20480;-82
2022/04/25 03:58:02;;;;;;;8.20;4.50;;;6.20;99.90;;;;;;5054228;28;20024;-82
2022/04/25 04:00:28;;;;;;;7.43;4.85;;;6.30;99.90;;;;;;5056104;28;20033;-82
2022/04/25 04:02:54;;;;;;;9.25;5.25;;;6.30;99.90;;;;;;5071490;28;20041;-82
2022/04/25 04:05:20;;;;;;;8.98;4.38;;;6.30;99.90;;;;;;5057256;28;20392;-82
2022/04/25 04:07:48;;;;;;;5.88;3.65;;;6.30;99.90;;;;;;5060550;28;20039;-82
2022/04/25 04:10:14;;;;;;;12.95;5.13;;;6.40;99.90;;;;;;5062241;28;20044;-82
2022/04/25 04:12:40;;;;;;;11.57;5.55;;;6.50;99.90;;;;;;5050609;28;20069;-81
2022/04/25 04:15:06;;;;;;;8.52;3.58;;;6.50;99.90;;;;;;5052073;28;20086;-82
2022/04/25 04:17:32;;;;;;;13.02;5.47;;;6.60;99.90;;;;;;5054481;28;20029;-81
2022/04/25 04:19:58;;;;;;;7.78;4.63;;;6.60;99.90;;;;;;5054517;28;20083;-81
2022/04/25 04:22:29;;;;;;;8.80;3.95;;;6.70;99.90;;;;;;5064107;28;20396;-81
2022/04/25 04:25:00;;;;;;;10.05;5.65;;;6.70;99.90;;;;;;5075695;28;20024;-82
2022/04/25 04:27:31;;;;;;;15.70;6.35;;;6.80;99.90;;;;;;5070281;28;20074;-81
2022/04/25 04:29:57;;;;;;;;;;;6.80;99.90;;;;;;5075906;28;20112;-80
2022/04/25 04:32:23;;;;;;;9.77;5.10;;;6.90;99.90;;;;;;5075833;28;19912;-82
2022/04/25 04:34:48;;;;;;;7.93;4.80;;;7.00;99.90;;;;;;5075800;28;20075;-82
2022/04/25 04:37:14;;;;;;;8.57;5.07;;;7.10;99.90;;;;;;5063459;28;20020;-83
2022/04/25 04:39:39;;;;;;;10.90;5.32;;;7.10;99.90;;;;;;5076138;28;20024;-82
2022/04/25 04:42:05;;;;;;;8.63;4.78;;;7.30;99.90;;;;;;5076331;28;20021;-81
2022/04/25 04:44:31;;;;;;;6.68;3.30;;;7.30;98.10;;;;;;5079917;28;20015;-81
2022/04/25 04:46:56;;;;;;;8.20;4.90;;;7.50;64.00;;;;;;5075739;28;20380;-81
2022/04/25 04:49:22;;;;;;;11.55;4.80;;;7.60;62.10;;;;;;5075943;28;20023;-81
2022/04/25 04:51:47;;;;;;;7.55;3.80;;;7.70;40.00;;;;;;5071445;28;20028;-81
2022/04/25 04:54:13;;;;;;;13.13;5.35;;;7.70;30.00;;;;;;5050511;28;20024;-82
2022/04/25 04:56:38;;;;;;;11.20;4.80;;;7.70;38.10;;;;;;5075166;28;20379;-82
2022/04/25 04:59:05;;;;;;;7.32;3.65;;;7.80;24.50;;;;;;5075495;28;20021;-82
2022/04/25 05:01:31;;;;;;;7.82;4.55;;;7.90;2.80;;;;;;5061159;28;20479;-82
2022/04/25 05:03:58;;;;;;;13.25;6.25;;;8.00;1.00;;;;;;5053584;28;20070;-82
2022/04/25 05:06:25;;;;;;;14.30;6.47;;;7.90;1.00;;;;;;5051639;28;20056;-82
2022/04/25 05:08:51;;;;;;;9.55;5.60;;;8.00;1.00;;;;;;5060802;28;20050;-82
2022/04/25 05:11:17;;;;;;;9.60;5.43;;;8.00;1.00;;;;;;5052649;28;20082;-82
2022/04/25 05:13:42;;;;;;;9.73;4.40;;;8.10;1.00;;;;;;5064307;28;20094;-82
2022/04/25 05:16:08;;;;;;;9.82;5.47;;;8.10;1.00;;;;;;5062161;28;20369;-82
2022/04/25 05:18:33;;;;;;;9.80;5.55;;;8.20;1.00;;;;;;5057587;28;20466;-82
2022/04/25 05:21:00;;;;;;;6.80;4.28;;;8.20;1.00;;;;;;5057753;28;20059;-82
2022/04/25 05:23:26;;;;;;;6.72;4.22;;;8.10;1.00;;;;;;5067719;28;20020;-82
2022/04/25 05:25:51;;;;;;;9.65;4.95;;;8.20;1.00;;;;;;5051601;28;20028;-82
2022/04/25 05:28:17;;;;;;;6.40;4.05;;;8.20;1.00;;;;;;5044981;28;20032;-83
2022/04/25 05:30:44;;;;;;;7.53;4.35;;;8.30;1.00;;;;;;5045233;28;20028;-82
2022/04/25 05:33:10;;;;;;;7.22;4.28;;;8.30;1.00;;;;;;5059667;28;20097;-82
2022/04/25 05:35:36;;;;;;;7.30;3.92;;;8.40;1.00;;;;;;5053242;28;20033;-83
2022/04/25 05:38:03;;;;;;;8.55;4.97;;;8.50;1.00;;;;;;5051398;28;20025;-82
2022/04/25 05:40:29;;;;;;;6.95;3.90;;;8.40;1.00;;;;;;5050322;28;20112;-82
2022/04/25 05:42:58;;;;;;;7.93;4.80;;;8.40;1.00;;;;;;5060534;28;20052;-83
2022/04/25 05:45:25;;;;;;;9.85;4.55;;;8.40;1.00;;;;;;5053849;28;20460;-83
2022/04/25 05:47:55;;;;;;;10.27;5.65;;;8.40;1.00;;;;;;5068045;28;20415;-83
2022/04/25 05:53:05;;;;;;;6.35;3.55;;;8.50;1.00;;;;;;5050207;28;20051;-83
2022/04/25 05:55:31;;;;;;;9.68;5.63;;;8.40;1.00;;;;;;5065327;28;20021;-82
2022/04/25 05:57:58;;;;;;;6.97;4.53;;;8.50;1.00;;;;;;5060389;28;20040;-83
2022/04/25 06:00:24;;;;;;;14.13;4.88;;;8.50;1.00;;;;;;5059235;28;20096;-83
2022/04/25 06:02:50;;;;;;;6.82;3.40;;;8.50;1.00;;;;;;5052870;28;20108;-83
2022/04/25 06:05:16;;;;;;;8.55;5.35;;;8.50;1.00;;;;;;5051605;28;20106;-83
2022/04/25 06:07:45;;;;;;;9.52;4.95;;;8.40;1.00;;;;;;5055409;28;20043;-82
2022/04/25 06:10:16;;;;;;;10.13;5.28;;;8.50;1.00;;;;;;5055094;28;20017;-82
2022/04/25 06:12:44;;;;;;;9.85;5.43;;;8.50;1.00;;;;;;5056168;28;20040;-82
2022/04/25 06:15:10;;;;;;;7.85;5.47;;;8.60;1.00;;;;;;5048170;28;20648;-82
2022/04/25 06:17:37;;;;;;;7.40;4.15;;;8.60;1.00;;;;;;5055927;28;20029;-82
2022/04/25 06:20:05;;;;;;;8.32;4.82;;;8.70;1.00;;;;;;5045906;28;20387;-82
2022/04/25 06:22:31;;;;;;;9.27;4.53;;;8.70;1.00;;;;;;5049261;28;20033;-82
2022/04/25 06:24:56;;;;;;;4.65;3.33;;;8.70;1.00;;;;;;5051001;28;20472;-82
2022/04/25 06:27:22;;;;;;;16.00;6.57;;;8.60;1.00;;;;;;5062584;28;20020;-78
2022/04/25 06:29:47;;;;;;;7.03;4.43;;;8.70;1.00;;;;;;5063581;28;20024;-78
2022/04/25 06:32:13;;;;;;;6.28;3.55;;;8.70;1.00;;;;;;5059307;28;20613;-79
2022/04/25 06:34:40;;;;;;;5.85;3.78;;;8.70;1.00;;;;;;5055818;28;20459;-79
2022/04/25 06:37:06;;;;;;;6.03;4.10;;;8.80;1.00;;;;;;5059512;28;20068;-79
2022/04/25 06:39:33;;;;;;;9.88;5.40;;;8.90;1.00;;;;;;5066115;28;20017;-78
2022/04/25 06:41:59;;;;;;;9.05;4.68;;;9.00;1.00;;;;;;5067443;28;20051;-78
2022/04/25 06:44:25;;;;;;;9.00;3.90;;;9.00;1.00;;;;;;5066318;28;20021;-76
2022/04/25 06:46:50;;;;;;;12.18;5.15;;;9.00;1.00;;;;;;5046497;28;20451;-76
2022/04/25 06:49:25;;;;;;;8.10;5.32;;;8.90;1.00;;;;;;5067915;28;20063;-77
2022/04/25 06:51:53;;;;;;;6.47;4.22;;;9.00;1.00;;;;;;5061782;28;20119;-78
2022/04/25 06:54:19;;;;;;;7.97;3.45;;;9.10;1.00;;;;;;5066260;28;20755;-78
2022/04/25 06:56:45;;;;;;;6.80;3.47;;;9.20;1.00;;;;;;5065779;28;20040;-76
2022/04/25 06:59:11;;;;;;;11.10;5.35;;;9.30;1.00;;;;;;5064809;28;20438;-78
2022/04/25 07:01:39;;;;;;;9.32;4.32;;;9.40;1.00;;;;;;5057947;28;20654;-78
2022/04/25 07:04:05;;;;;;;8.10;4.32;;;9.40;1.00;;;;;;5063964;28;20111;-79
2022/04/25 07:06:30;;;;;;;5.90;3.88;;;9.30;1.00;;;;;;5068850;28;20032;-79
2022/04/25 07:08:56;;;;;;;6.35;4.25;;;9.10;1.00;;;;;;5055869;28;20108;-78
2022/04/25 07:11:21;;;;;;;8.25;4.90;;;9.10;1.00;;;;;;5059678;28;20035;-78
2022/04/25 07:13:48;;;;;;;7.40;3.75;;;9.10;1.00;;;;;;5063838;28;20044;-78
2022/04/25 07:16:14;;;;;;;6.57;4.30;;;9.20;1.00;;;;;;5066877;28;20021;-78
2022/04/25 07:18:40;;;;;;;8.07;4.22;;;9.30;1.00;;;;;;5063419;28;20076;-78
2022/04/25 07:29:29;;;;;;;5.97;3.72;;;9.70;1.00;;;;;;5050776;28;20147;-78
2022/04/25 07:31:54;;;;;;;5.40;4.03;;;9.70;1.00;;;;;;5054771;28;20554;-79
2022/04/25 07:34:21;;;;;;;8.27;4.28;;;9.70;1.00;;;;;;5066240;28;20021;-78
2022/04/25 07:36:54;;;;;;;8.32;3.97;;;9.80;1.00;;;;;;5060371;28;20017;-78
2022/04/25 07:39:22;;;;;;;8.65;4.43;;;10.20;1.00;;;;;;5070057;28;20027;-79
2022/04/25 07:41:49;;;;;;;11.18;4.25;;;10.10;1.00;;;;;;5067026;28;20040;-79
2022/04/25 07:44:15;;;;;;;8.30;4.53;;;10.70;1.00;;;;;;5060168;28;20036;-79
2022/04/25 07:46:41;;;;;;;11.50;4.82;;;10.50;1.00;;;;;;5065416;28;20033;-78
2022/04/25 07:49:10;;;;;;;7.47;4.00;;;10.30;1.00;;;;;;5066669;28;20083;-78
2022/04/25 07:51:37;;;;;;;10.55;4.22;;;10.70;99.90;;;;;;5067805;28;20032;-78
2022/04/25 07:54:06;;;;;;;4.90;2.80;;;10.60;99.90;;;;;;5072131;28;20029;-81
2022/04/25 07:56:33;;;;;;;6.72;3.88;;;10.10;1.00;;;;;;5067557;28;20063;-79
2022/04/25 07:59:02;;;;;;;9.15;3.20;;;10.40;1.00;;;;;;5062602;28;20037;-79
2022/04/25 08:01:28;;;;;;;7.13;3.97;;;11.20;99.90;;;;;;5066367;28;20111;-78
2022/04/25 08:03:55;;;;;;;9.68;4.35;;;11.50;99.90;;;;;;5065953;28;20115;-78
2022/04/25 08:06:21;;;;;;;6.85;4.60;;;11.20;99.90;;;;;;5061278;28;20481;-79
2022/04/25 08:08:52;;;;;;;7.72;3.63;;;10.90;99.90;;;;;;5073082;28;20096;-78
2022/04/25 08:11:18;;;;;;;8.80;3.92;;;11.40;99.90;;;;;;5064753;28;20127;-78
2022/04/25 08:19:15;;;;;;;7.70;4.15;;;12.00;99.90;;;;;;5058530;28;20124;-78
2022/04/25 08:21:43;;;;;;;7.90;4.35;;;14.20;99.90;;;;;;5055791;28;20700;-77
2022/04/25 08:24:09;;;;;;;5.30;3.85;;;12.80;99.90;;;;;;5060125;28;20496;-79
2022/04/25 08:26:35;;;;;;;9.80;4.50;;;11.50;99.90;;;;;;5053111;28;20033;-78
2022/04/25 08:29:01;;;;;;;8.32;4.38;;;11.40;99.90;;;;;;5071652;28;20317;-79
2022/04/25 08:31:27;;;;;;;5.85;4.30;;;11.60;99.90;;;;;;5066185;28;20040;-79
2022/04/25 08:33:53;;;;;;;6.03;3.30;;;11.50;99.90;;;;;;5064198;28;20021;-78
2022/04/25 08:36:19;;;;;;;8.95;4.45;;;11.30;99.90;;;;;;5059630;28;20063;-78
2022/04/25 08:38:45;;;;;;;6.53;3.90;;;11.20;99.90;;;;;;5072613;28;20024;-78
2022/04/25 08:41:14;;;;;;;4.72;3.28;;;11.10;99.90;;;;;;5064212;28;20078;-77
2022/04/25 08:43:40;;;;;;;8.88;4.82;;;11.50;99.90;;;;;;5075147;28;20013;-77
2022/04/25 08:46:10;;;;;;;5.68;3.25;;;11.80;99.90;;;;;;5072341;28;20032;-77
2022/04/25 08:48:39;;;;;;;7.40;4.50;;;11.80;99.90;;;;;;5075420;28;20040;-77
2022/04/25 08:51:05;;;;;;;8.77;4.07;;;12.50;99.90;;;;;;5075333;28;20020;-79
2022/04/25 08:53:35;;;;;;;8.68;5.35;;;12.10;99.90;;;;;;5075517;28;20071;-77
2022/04/25 08:56:03;;;;;;;5.75;4.10;;;11.90;99.90;;;;;;5074782;28;20095;-78
2022/04/25 08:58:31;;;;;;;7.28;4.28;;;12.70;99.90;;;;;;5055919;28;20033;-78
2022/04/25 09:00:58;;;;;;;7.07;4.65;;;12.40;99.90;;;;;;5060333;28;20021;-78
2022/04/25 09:03:24;;;;;;;7.30;4.40;;;12.80;99.90;;;;;;5052534;28;20537;-78
2022/04/25 09:05:50;;;;;;;7.57;4.68;;;12.70;99.90;;;;;;5053369;28;20020;-77
2022/04/25 09:08:16;;;;;;;10.43;5.07;;;13.00;99.90;;;;;;5060671;28;20472;-79
2022/04/25 09:10:43;;;;;;;9.05;4.85;;;12.60;99.90;;;;;;5065324;28;20048;-79
2022/04/25 09:13:11;;;;;;;8.70;4.28;;;12.80;99.90;;;;;;5051595;28;20055;-79
2022/04/25 09:15:37;;;;;;;9.13;5.07;;;13.20;99.90;;;;;;5069129;28;20025;-80
2022/04/25 09:18:02;;;;;;;8.25;4.50;;;12.90;99.90;;;;;;5065353;28;20048;-80
2022/04/25 09:20:28;;;;;;;9.75;5.05;;;13.20;99.90;;;;;;5066388;28;20020;-80
2022/04/25 09:22:54;;;;;;;9.23;4.95;;;13.70;99.90;;;;;;5060683;28;20124;-80
2022/04/25 09:25:20;;;;;;;8.93;4.70;;;13.90;99.90;;;;;;5058555;28;20515;-80
2022/04/25 09:27:47;;;;;;;6.50;4.15;;;13.90;99.90;;;;;;5051681;28;20043;-80
2022/04/25 09:30:20;;;;;;;10.20;4.68;;;13.90;99.90;;;;;;5045606;28;20048;-78
2022/04/25 09:32:51;;;;;;;7.22;3.80;;;13.80;99.90;;;;;;5057009;28;20024;-78
2022/04/25 09:35:35;;;;;;;7.03;4.82;;;13.50;99.90;;;;;;5055811;28;20052;-78
2022/04/25 09:38:03;;;;;;;8.20;3.78;;;13.90;99.90;;;;;;5060495;28;20383;-78
2022/04/25 09:40:33;;;;;;;9.18;4.70;;;14.70;99.90;;;;;;5057477;28;20132;-78
2022/04/25 09:43:08;;;;;;;9.05;5.13;;;13.60;99.90;;;;;;5061527;28;20120;-78
2022/04/25 09:45:35;;;;;;;8.65;5.00;;;13.20;99.90;;;;;;5048281;28;20052;-79
2022/04/25 09:48:02;;;;;;;6.15;3.50;;;13.80;99.90;;;;;;5033893;28;20400;-78
2022/04/25 09:50:27;;;;;;;7.07;4.07;;;13.70;99.90;;;;;;5059529;28;20021;-80
2022/04/25 09:53:02;;;;;;;8.23;4.18;;;13.90;99.90;;;;;;5053886;28;20431;-79
2022/04/25 09:55:30;;;;;;;5.55;2.67;;;14.10;99.90;;;;;;5056180;28;20365;-78
2022/04/25 09:57:56;;;;;;;5.15;3.13;;;13.80;99.90;;;;;;5050947;28;20037;-78
2022/04/25 10:00:33;;;;;;;6.38;2.50;;;14.30;99.90;;;;;;5067158;28;20029;-78
2022/04/25 10:03:03;;;;;;;5.15;3.38;;;13.70;99.90;;;;;;5054008;28;20056;-79
2022/04/25 10:05:42;;;;;;;4.70;3.13;;;13.70;99.90;;;;;;5049993;28;20021;-78
2022/04/25 10:08:13;;;;;;;4.72;2.58;;;13.60;99.90;;;;;;5056662;28;20029;-78
2022/04/25 10:10:41;;;;;;;3.20;2.33;;;13.00;99.90;;;;;;5058904;28;20020;-79
2022/04/25 10:13:06;;;;;;;6.15;3.13;;;12.40;99.90;;;;;;5049178;28;20392;-79
2022/04/25 10:15:33;;;;;;;7.35;3.13;;;12.70;99.90;;;;;;5056185;28;20025;-78
2022/04/25 10:18:01;;;;;;;6.78;2.83;;;12.50;99.90;;;;;;5064546;28;20029;-78
2022/04/25 10:20:26;;;;;;;4.97;2.88;;;12.60;99.90;;;;;;5060816;28;20092;-78
2022/04/25 10:22:52;;;;;;;3.75;2.08;;;12.60;99.90;;;;;;5060514;28;20033;-79
2022/04/25 10:25:18;;;;;;;6.57;2.78;;;12.40;99.90;;;;;;5058727;28;20522;-78
2022/04/25 10:27:45;;;;;;;5.18;2.20;;;12.50;99.90;;;;;;5066371;28;20020;-79
2022/04/25 10:30:19;;;;;;;4.65;2.30;;;12.30;99.90;;;;;;5058712;28;20029;-80
2022/04/25 10:32:45;;;;;;;5.13;2.85;;;12.40;99.90;;;;;;5067608;28;20636;-79
2022/04/25 10:35:30;;;;;;;4.60;2.75;;;12.20;99.90;;;;;;5058735;28;20522;-80
2022/04/25 10:37:56;;;;;;;7.72;2.33;;;12.00;99.90;;;;;;5058945;28;20083;-79
2022/04/25 10:46:14;;;;;;;6.63;3.13;;;11.60;99.90;;;;;;5050374;28;20035;-80
2022/04/25 10:49:09;;;;;;;5.22;2.50;;;11.60;99.90;;;;;;5073117;28;20020;-81
2022/04/25 10:51:39;;;;;;;3.55;2.45;;;11.80;99.90;;;;;;5055896;28;20086;-81
2022/04/25 10:54:05;;;;;;;2.97;2.33;;;12.00;99.90;;;;;;5051869;28;20488;-79
2022/04/25 10:56:33;;;;;;;4.55;2.50;;;11.90;99.90;;;;;;5065286;28;20016;-79
2022/04/25 10:59:25;;;;;;;4.50;2.20;;;12.10;99.90;;;;;;5054495;28;20025;-80
2022/04/25 11:01:52;;;;;;;4.70;2.45;;;12.20;99.90;;;;;;5059326;28;20103;-79
2022/04/25 11:04:19;;;;;;;2.50;2.10;;;12.30;99.90;;;;;;5066131;28;20028;-80
2022/04/25 11:06:44;;;;;;;4.70;2.17;;;12.50;99.90;;;;;;5060082;28;20044;-82
2022/04/25 11:09:10;;;;;;;5.90;2.35;;;12.70;99.90;;;;;;5059626;28;20067;-78
2022/04/25 11:11:47;;;;;;;4.45;2.20;;;13.00;99.90;;;;;;5065924;28;20376;-79
2022/04/25 11:14:14;;;;;;;5.47;2.53;;;13.40;99.90;;;;;;5041571;28;20459;-80
2022/04/25 11:16:40;;;;;;;3.75;2.47;;;13.40;99.90;;;;;;5056444;28;20119;-80
2022/04/25 11:19:09;;;;;;;6.72;2.95;;;12.90;99.90;;;;;;5069634;28;20538;-79
2022/04/25 11:21:35;;;;;;;4.57;2.50;;;13.00;99.90;;;;;;5066626;28;20116;-79
2022/04/25 11:24:02;;;;;;;3.58;2.00;;;13.00;99.90;;;;;;5076869;28;20367;-79
2022/04/25 11:26:29;;;;;;;7.03;2.50;;;13.10;99.90;;;;;;5065664;28;20060;-79
2022/04/25 11:28:54;;;;;;;4.90;2.58;;;13.60;99.90;;;;;;5071712;28;20048;-79
2022/04/25 11:31:21;;;;;;;5.63;2.25;;;13.50;99.90;;;;;;5076911;28;20059;-79
2022/04/25 11:33:48;;;;;;;2.05;1.67;;;13.50;99.90;;;;;;5073546;28;20052;-79
2022/04/25 11:36:14;;;;;;;8.00;2.58;;;13.70;99.90;;;;;;5068916;28;20383;-80
2022/04/25 11:41:31;;;;;;;9.65;2.42;;;13.10;99.90;;;;;;5065467;28;20031;-79
2022/04/25 11:44:00;;;;;;;5.82;2.25;;;12.90;99.90;;;;;;5066850;28;20037;-79
2022/04/25 11:46:27;;;;;;;2.25;1.60;;;12.80;99.90;;;;;;5057194;28;20070;-79
2022/04/25 11:48:53;;;;;;;4.80;2.05;;;12.70;99.90;;;;;;5061982;28;20032;-79
2022/04/25 11:51:28;;;;;;;3.25;1.85;;;12.90;99.90;;;;;;5067900;28;20104;-80
2022/04/25 11:53:55;;;;;;;3.30;2.03;;;13.00;99.90;;;;;;5055926;28;20124;-79
2022/04/25 11:56:23;;;;;;;4.03;2.17;;;12.90;99.90;;;;;;5065363;28;20480;-79
2022/04/25 11:58:52;;;;;;;3.30;2.33;;;12.80;99.90;;;;;;5052428;28;20036;-80
2022/04/25 12:01:36;;;;;;;6.05;2.80;;;12.70;99.90;;;;;;5069249;28;20044;-79
2022/04/25 12:04:21;;;;;;;10.10;2.72;;;12.80;99.90;;;;;;5059895;28;20091;-79
2022/04/25 12:07:00;;;;;;;7.32;2.40;;;12.90;99.90;;;;;;5052188;28;20029;-79
2022/04/25 12:15:35;;;;;;;4.15;1.98;;;13.00;99.90;;;;;;5059196;28;20055;-79
2022/04/25 12:18:23;;;;;;;5.30;2.60;;;13.10;99.90;;;;;;5052904;28;20060;-79
2022/04/25 12:21:08;;;;;;;3.63;1.88;;;13.10;99.90;;;;;;5068612;28;20043;-80
2022/04/25 12:23:55;;;;;;;4.07;2.38;;;13.10;99.90;;;;;;5053438;28;20021;-79
2022/04/25 12:26:24;;;;;;;4.15;2.25;;;13.30;99.90;;;;;;5062485;28;20056;-79
2022/04/25 12:28:59;;;;;;;8.43;3.30;;;13.40;99.90;;;;;;5069703;28;20093;-78
2022/04/25 12:31:29;;;;;;;5.45;2.20;;;13.40;99.90;;;;;;5071732;28;20475;-79
2022/04/25 12:33:54;;;;;;;6.95;3.53;;;13.60;99.90;;;;;;5073338;28;20024;-78
2022/04/25 12:36:23;;;;;;;4.75;2.97;;;13.00;99.90;;;;;;5077940;28;20027;-78
2022/04/25 12:39:02;;;;;;;4.68;2.88;;;12.90;99.90;;;;;;5075750;28;20028;-78
2022/04/25 12:41:34;;;;;;;3.47;2.55;;;13.00;99.90;;;;;;5075445;28;20078;-79
2022/04/25 12:44:09;;;;;;;5.88;3.35;;;12.60;99.90;;;;;;5063700;28;20113;-79
2022/04/25 12:46:40;;;;;;;5.25;3.35;;;12.70;99.90;;;;;;5072387;28;20028;-79
2022/04/25 12:49:05;;;;;;;5.25;3.00;;;12.70;99.90;;;;;;5051159;28;20029;-79
2022/04/25 12:51:38;;;;;;;5.85;3.10;;;12.80;99.90;;;;;;5056457;28;20039;-79
2022/04/25 12:54:06;;;;;;;6.75;3.50;;;13.00;99.90;;;;;;5056455;28;20119;-79
2022/04/25 12:56:35;;;;;;;6.85;3.63;;;13.10;99.90;;;;;;5058744;28;20029;-78
2022/04/25 12:59:02;;;;;;;5.97;2.80;;;13.50;99.90;;;;;;5061512;28;20060;-78
2022/04/25 13:01:32;;;;;;;5.18;2.78;;;13.60;99.90;;;;;;5067751;28;20025;-81
2022/04/25 13:04:12;;;;;;;6.88;2.97;;;13.50;99.90;;;;;;5052234;28;20104;-79
2022/04/25 13:06:38;;;;;;;;;;;13.60;99.90;;;;;;5054740;28;20020;-78
2022/04/25 13:09:05;;;;;;;4.40;2.88;;;13.60;99.90;;;;;;5049604;28;19919;-79
2022/04/25 13:11:30;;;;;;;8.68;2.97;;;13.60;99.90;;;;;;5060571;28;20116;-79
2022/04/25 13:13:57;;;;;;;5.53;2.88;;;13.50;99.90;;;;;;5060842;28;20515;-79
2022/04/25 13:16:23;;;;;;;3.65;2.35;;;13.70;99.90;;;;;;5054085;28;20107;-79
2022/04/25 13:18:48;;;;;;;6.18;2.60;;;13.30;99.90;;;;;;5061435;28;20493;-84
2022/04/25 13:21:16;;;;;;;4.47;2.55;;;13.40;99.90;;;;;;5067391;28;20024;-83
2022/04/25 13:23:41;;;;;;;5.28;2.90;;;13.40;99.90;;;;;;5066851;28;20079;-81
2022/04/25 13:26:09;;;;;;;11.90;3.97;;;13.50;99.90;;;;;;5052293;28;20033;-80
2022/04/25 13:28:37;;;;;;;4.85;2.83;;;13.70;99.90;;;;;;5057464;28;20020;-80
2022/04/25 13:31:03;;;;;;;4.53;3.00;;;13.80;99.90;;;;;;5072395;28;20027;-80
2022/04/25 13:33:28;;;;;;;3.70;2.80;;;13.80;99.90;;;;;;5064863;28;20040;-80
2022/04/25 13:35:54;;;;;;;5.97;2.88;;;13.90;99.90;;;;;;5070265;28;20321;-80